sensor_id;sensor_type;location;lat;lon;timestamp;P1;durP1;ratioP1;P2;durP2;ratioP2
69334;SDS011;56477;52.742;15.242;2023-12-28T00:01:40;18.43;;;3.73;;
69334;SDS011;56477;52.742;15.242;2023-12-28T00:04:06;17.88;;;6.03;;
69334;SDS011;56477;52.742;15.242;2023-12-28T00:06:31;15.30;;;5.15;;
69334;SDS011;56477;52.742;15.242;2023-12-28T00:09:01;14.03;;;4.63;;
69334;SDS011;56477;52.742;15.242;2023-12-28T00:11:27;9.90;;;4.13;;
69334;SDS011;56477;52.742;15.242;2023-12-28T00:13:53;18.40;;;4.97;;
69334;SDS011;56477;52.742;15.242;2023-12-28T00:16:19;16.37;;;4.83;;
69334;SDS011;56477;52.742;15.242;2023-12-28T00:18:45;16.25;;;5.35;;
69334;SDS011;56477;52.742;15.242;2023-12-28T00:21:11;21.90;;;5.68;;
69334;SDS011;56477;52.742;15.242;2023-12-28T00:23:37;16.25;;;5.53;;
69334;SDS011;56477;52.742;15.242;2023-12-28T00:26:03;12.57;;;4.40;;
69334;SDS011;56477;52.742;15.242;2023-12-28T00:28:29;11.82;;;4.05;;
69334;SDS011;56477;52.742;15.242;2023-12-28T00:30:55;18.20;;;4.50;;
69334;SDS011;56477;52.742;15.242;2023-12-28T00:33:21;12.52;;;4.10;;
69334;SDS011;56477;52.742;15.242;2023-12-28T00:35:46;16.20;;;4.40;;
69334;SDS011;56477;52.742;15.242;2023-12-28T00:38:12;14.40;;;4.57;;
69334;SDS011;56477;52.742;15.242;2023-12-28T00:40:38;14.40;;;3.97;;
69334;SDS011;56477;52.742;15.242;2023-12-28T00:43:07;10.25;;;3.88;;
69334;SDS011;56477;52.742;15.242;2023-12-28T00:45:33;15.27;;;4.63;;
69334;SDS011;56477;52.742;15.242;2023-12-28T00:47:59;13.03;;;4.87;;
69334;SDS011;56477;52.742;15.242;2023-12-28T00:50:25;14.68;;;3.92;;
69334;SDS011;56477;52.742;15.242;2023-12-28T00:52:53;15.85;;;4.30;;
69334;SDS011;56477;52.742;15.242;2023-12-28T00:55:18;12.30;;;4.33;;
69334;SDS011;56477;52.742;15.242;2023-12-28T00:57:45;16.48;;;4.63;;
69334;SDS011;56477;52.742;15.242;2023-12-28T01:00:10;10.63;;;3.97;;
69334;SDS011;56477;52.742;15.242;2023-12-28T01:02:37;16.83;;;4.97;;
69334;SDS011;56477;52.742;15.242;2023-12-28T01:05:02;18.93;;;4.90;;
69334;SDS011;56477;52.742;15.242;2023-12-28T01:07:29;14.05;;;4.18;;
69334;SDS011;56477;52.742;15.242;2023-12-28T01:09:55;11.93;;;4.40;;
69334;SDS011;56477;52.742;15.242;2023-12-28T01:12:21;11.93;;;3.55;;
69334;SDS011;56477;52.742;15.242;2023-12-28T01:14:47;10.57;;;3.70;;
69334;SDS011;56477;52.742;15.242;2023-12-28T01:17:13;17.13;;;5.13;;
69334;SDS011;56477;52.742;15.242;2023-12-28T01:19:39;13.90;;;4.20;;
69334;SDS011;56477;52.742;15.242;2023-12-28T01:22:05;9.40;;;3.63;;
69334;SDS011;56477;52.742;15.242;2023-12-28T01:24:31;10.75;;;3.35;;
69334;SDS011;56477;52.742;15.242;2023-12-28T01:26:57;12.10;;;3.77;;
69334;SDS011;56477;52.742;15.242;2023-12-28T01:29:22;15.85;;;4.05;;
69334;SDS011;56477;52.742;15.242;2023-12-28T01:31:48;11.23;;;4.15;;
69334;SDS011;56477;52.742;15.242;2023-12-28T01:34:14;15.07;;;3.87;;
69334;SDS011;56477;52.742;15.242;2023-12-28T01:36:40;18.63;;;3.80;;
69334;SDS011;56477;52.742;15.242;2023-12-28T01:39:09;14.80;;;3.97;;
69334;SDS011;56477;52.742;15.242;2023-12-28T01:41:36;13.05;;;4.43;;
69334;SDS011;56477;52.742;15.242;2023-12-28T01:44:02;10.98;;;4.53;;
69334;SDS011;56477;52.742;15.242;2023-12-28T01:46:29;11.17;;;3.80;;
69334;SDS011;56477;52.742;15.242;2023-12-28T01:48:55;13.73;;;4.60;;
69334;SDS011;56477;52.742;15.242;2023-12-28T01:51:21;16.63;;;4.53;;
69334;SDS011;56477;52.742;15.242;2023-12-28T01:53:49;13.13;;;4.28;;
69334;SDS011;56477;52.742;15.242;2023-12-28T01:56:17;18.58;;;5.03;;
69334;SDS011;56477;52.742;15.242;2023-12-28T01:58:44;7.40;;;2.80;;
69334;SDS011;56477;52.742;15.242;2023-12-28T02:01:11;12.98;;;4.00;;
69334;SDS011;56477;52.742;15.242;2023-12-28T02:03:37;13.50;;;4.88;;
69334;SDS011;56477;52.742;15.242;2023-12-28T02:06:04;10.10;;;3.72;;
69334;SDS011;56477;52.742;15.242;2023-12-28T02:08:32;10.80;;;3.87;;
69334;SDS011;56477;52.742;15.242;2023-12-28T02:10:58;10.30;;;3.28;;
69334;SDS011;56477;52.742;15.242;2023-12-28T02:13:24;12.02;;;3.90;;
69334;SDS011;56477;52.742;15.242;2023-12-28T02:18:39;8.65;;;3.08;;
69334;SDS011;56477;52.742;15.242;2023-12-28T02:21:12;6.83;;;2.87;;
69334;SDS011;56477;52.742;15.242;2023-12-28T02:23:39;13.25;;;4.18;;
69334;SDS011;56477;52.742;15.242;2023-12-28T02:26:05;11.52;;;3.00;;
69334;SDS011;56477;52.742;15.242;2023-12-28T02:28:31;9.75;;;3.17;;
69334;SDS011;56477;52.742;15.242;2023-12-28T02:30:57;11.83;;;4.17;;
69334;SDS011;56477;52.742;15.242;2023-12-28T02:33:29;11.15;;;4.72;;
69334;SDS011;56477;52.742;15.242;2023-12-28T02:36:02;9.90;;;3.38;;
69334;SDS011;56477;52.742;15.242;2023-12-28T02:38:33;5.63;;;2.08;;
69334;SDS011;56477;52.742;15.242;2023-12-28T02:41:02;12.00;;;3.05;;
69334;SDS011;56477;52.742;15.242;2023-12-28T02:43:29;8.67;;;3.13;;
69334;SDS011;56477;52.742;15.242;2023-12-28T02:45:55;10.63;;;3.25;;
69334;SDS011;56477;52.742;15.242;2023-12-28T02:48:21;9.35;;;3.28;;
69334;SDS011;56477;52.742;15.242;2023-12-28T02:50:47;9.52;;;4.20;;
69334;SDS011;56477;52.742;15.242;2023-12-28T02:53:13;10.03;;;2.53;;
69334;SDS011;56477;52.742;15.242;2023-12-28T02:55:39;11.05;;;3.97;;
69334;SDS011;56477;52.742;15.242;2023-12-28T02:58:05;10.70;;;3.58;;
69334;SDS011;56477;52.742;15.242;2023-12-28T03:00:31;9.47;;;3.37;;
69334;SDS011;56477;52.742;15.242;2023-12-28T03:02:57;11.15;;;3.28;;
69334;SDS011;56477;52.742;15.242;2023-12-28T03:05:23;13.00;;;4.50;;
69334;SDS011;56477;52.742;15.242;2023-12-28T03:07:49;17.63;;;3.70;;
69334;SDS011;56477;52.742;15.242;2023-12-28T03:10:15;9.53;;;3.47;;
69334;SDS011;56477;52.742;15.242;2023-12-28T03:12:41;11.68;;;4.13;;
69334;SDS011;56477;52.742;15.242;2023-12-28T03:15:07;11.48;;;3.42;;
69334;SDS011;56477;52.742;15.242;2023-12-28T03:17:33;13.07;;;5.38;;
69334;SDS011;56477;52.742;15.242;2023-12-28T03:20:00;11.07;;;3.97;;
69334;SDS011;56477;52.742;15.242;2023-12-28T03:22:26;12.77;;;2.95;;
69334;SDS011;56477;52.742;15.242;2023-12-28T03:24:52;9.63;;;3.47;;
69334;SDS011;56477;52.742;15.242;2023-12-28T03:27:18;10.83;;;3.60;;
69334;SDS011;56477;52.742;15.242;2023-12-28T03:29:44;11.35;;;3.33;;
69334;SDS011;56477;52.742;15.242;2023-12-28T03:32:10;6.63;;;2.80;;
69334;SDS011;56477;52.742;15.242;2023-12-28T03:34:36;11.43;;;3.50;;
69334;SDS011;56477;52.742;15.242;2023-12-28T03:37:02;11.60;;;2.80;;
69334;SDS011;56477;52.742;15.242;2023-12-28T03:39:28;8.48;;;2.97;;
69334;SDS011;56477;52.742;15.242;2023-12-28T03:41:54;8.40;;;2.97;;
69334;SDS011;56477;52.742;15.242;2023-12-28T03:44:20;9.07;;;2.87;;
69334;SDS011;56477;52.742;15.242;2023-12-28T03:46:50;11.77;;;3.50;;
69334;SDS011;56477;52.742;15.242;2023-12-28T03:49:16;9.00;;;3.30;;
69334;SDS011;56477;52.742;15.242;2023-12-28T03:51:46;8.68;;;2.80;;
69334;SDS011;56477;52.742;15.242;2023-12-28T03:54:17;7.10;;;2.50;;
69334;SDS011;56477;52.742;15.242;2023-12-28T03:56:43;11.23;;;4.13;;
69334;SDS011;56477;52.742;15.242;2023-12-28T03:59:11;8.63;;;3.33;;
69334;SDS011;56477;52.742;15.242;2023-12-28T04:01:38;6.30;;;3.28;;
69334;SDS011;56477;52.742;15.242;2023-12-28T04:04:04;8.55;;;2.85;;
69334;SDS011;56477;52.742;15.242;2023-12-28T04:06:30;6.30;;;2.30;;
69334;SDS011;56477;52.742;15.242;2023-12-28T04:08:56;9.35;;;3.25;;
69334;SDS011;56477;52.742;15.242;2023-12-28T04:11:22;7.93;;;2.65;;
69334;SDS011;56477;52.742;15.242;2023-12-28T04:13:47;8.33;;;3.40;;
69334;SDS011;56477;52.742;15.242;2023-12-28T04:16:14;7.63;;;2.63;;
69334;SDS011;56477;52.742;15.242;2023-12-28T04:18:41;6.72;;;2.22;;
69334;SDS011;56477;52.742;15.242;2023-12-28T04:21:08;8.55;;;3.22;;
69334;SDS011;56477;52.742;15.242;2023-12-28T04:23:37;12.52;;;3.88;;
69334;SDS011;56477;52.742;15.242;2023-12-28T04:26:04;26.63;;;9.57;;
69334;SDS011;56477;52.742;15.242;2023-12-28T04:28:30;22.98;;;7.05;;
69334;SDS011;56477;52.742;15.242;2023-12-28T04:30:57;21.30;;;5.53;;
69334;SDS011;56477;52.742;15.242;2023-12-28T04:33:22;13.93;;;3.90;;
69334;SDS011;56477;52.742;15.242;2023-12-28T04:35:48;14.43;;;5.20;;
69334;SDS011;56477;52.742;15.242;2023-12-28T04:38:14;13.00;;;4.45;;
69334;SDS011;56477;52.742;15.242;2023-12-28T04:40:40;12.07;;;4.22;;
69334;SDS011;56477;52.742;15.242;2023-12-28T04:43:06;11.95;;;3.80;;
69334;SDS011;56477;52.742;15.242;2023-12-28T04:45:33;8.93;;;3.43;;
69334;SDS011;56477;52.742;15.242;2023-12-28T04:47:59;5.18;;;2.55;;
69334;SDS011;56477;52.742;15.242;2023-12-28T04:50:25;8.52;;;2.92;;
69334;SDS011;56477;52.742;15.242;2023-12-28T04:52:50;6.23;;;2.83;;
69334;SDS011;56477;52.742;15.242;2023-12-28T04:55:16;6.95;;;2.50;;
69334;SDS011;56477;52.742;15.242;2023-12-28T04:57:42;5.97;;;1.70;;
69334;SDS011;56477;52.742;15.242;2023-12-28T05:00:08;6.50;;;2.45;;
69334;SDS011;56477;52.742;15.242;2023-12-28T05:02:34;4.97;;;1.70;;
69334;SDS011;56477;52.742;15.242;2023-12-28T05:05:00;5.93;;;2.22;;
69334;SDS011;56477;52.742;15.242;2023-12-28T05:07:26;4.47;;;1.63;;
69334;SDS011;56477;52.742;15.242;2023-12-28T05:09:52;6.63;;;2.33;;
69334;SDS011;56477;52.742;15.242;2023-12-28T05:12:19;7.90;;;2.43;;
69334;SDS011;56477;52.742;15.242;2023-12-28T05:14:45;4.45;;;1.63;;
69334;SDS011;56477;52.742;15.242;2023-12-28T05:17:11;6.43;;;2.40;;
69334;SDS011;56477;52.742;15.242;2023-12-28T05:19:37;7.00;;;1.27;;
69334;SDS011;56477;52.742;15.242;2023-12-28T05:22:03;4.90;;;1.48;;
69334;SDS011;56477;52.742;15.242;2023-12-28T05:24:32;5.78;;;2.28;;
69334;SDS011;56477;52.742;15.242;2023-12-28T05:26:58;5.55;;;1.35;;
69334;SDS011;56477;52.742;15.242;2023-12-28T05:29:24;5.57;;;2.13;;
69334;SDS011;56477;52.742;15.242;2023-12-28T05:31:50;5.68;;;1.83;;
69334;SDS011;56477;52.742;15.242;2023-12-28T05:34:16;3.70;;;1.50;;
69334;SDS011;56477;52.742;15.242;2023-12-28T05:36:42;3.23;;;0.97;;
69334;SDS011;56477;52.742;15.242;2023-12-28T05:39:11;5.10;;;1.88;;
69334;SDS011;56477;52.742;15.242;2023-12-28T05:41:39;5.85;;;1.63;;
69334;SDS011;56477;52.742;15.242;2023-12-28T05:44:06;5.60;;;2.03;;
69334;SDS011;56477;52.742;15.242;2023-12-28T05:46:31;4.80;;;1.70;;
69334;SDS011;56477;52.742;15.242;2023-12-28T05:48:58;5.60;;;1.98;;
69334;SDS011;56477;52.742;15.242;2023-12-28T05:51:23;3.58;;;1.40;;
69334;SDS011;56477;52.742;15.242;2023-12-28T05:53:50;4.88;;;1.55;;
69334;SDS011;56477;52.742;15.242;2023-12-28T05:56:16;2.90;;;1.10;;
69334;SDS011;56477;52.742;15.242;2023-12-28T05:58:43;5.80;;;2.13;;
69334;SDS011;56477;52.742;15.242;2023-12-28T06:01:08;9.02;;;1.45;;
69334;SDS011;56477;52.742;15.242;2023-12-28T06:03:34;5.32;;;2.40;;
69334;SDS011;56477;52.742;15.242;2023-12-28T06:06:00;7.07;;;2.50;;
69334;SDS011;56477;52.742;15.242;2023-12-28T06:08:26;6.15;;;1.90;;
69334;SDS011;56477;52.742;15.242;2023-12-28T06:10:52;2.80;;;1.08;;
69334;SDS011;56477;52.742;15.242;2023-12-28T06:13:18;4.97;;;2.20;;
69334;SDS011;56477;52.742;15.242;2023-12-28T06:15:44;4.30;;;1.63;;
69334;SDS011;56477;52.742;15.242;2023-12-28T06:18:10;7.03;;;1.70;;
69334;SDS011;56477;52.742;15.242;2023-12-28T06:20:36;8.20;;;3.40;;
69334;SDS011;56477;52.742;15.242;2023-12-28T06:23:02;9.35;;;3.38;;
69334;SDS011;56477;52.742;15.242;2023-12-28T06:25:28;4.97;;;1.85;;
69334;SDS011;56477;52.742;15.242;2023-12-28T06:27:54;5.45;;;2.03;;
69334;SDS011;56477;52.742;15.242;2023-12-28T06:30:20;4.30;;;1.27;;
69334;SDS011;56477;52.742;15.242;2023-12-28T06:32:46;4.15;;;1.80;;
69334;SDS011;56477;52.742;15.242;2023-12-28T06:35:12;5.68;;;2.58;;
69334;SDS011;56477;52.742;15.242;2023-12-28T06:37:38;4.63;;;1.73;;
69334;SDS011;56477;52.742;15.242;2023-12-28T06:40:04;2.88;;;1.27;;
69334;SDS011;56477;52.742;15.242;2023-12-28T06:42:31;3.53;;;0.82;;
69334;SDS011;56477;52.742;15.242;2023-12-28T06:44:56;6.47;;;2.20;;
69334;SDS011;56477;52.742;15.242;2023-12-28T06:47:22;5.50;;;2.20;;
69334;SDS011;56477;52.742;15.242;2023-12-28T06:49:48;4.53;;;1.65;;
69334;SDS011;56477;52.742;15.242;2023-12-28T06:52:14;3.10;;;1.00;;
69334;SDS011;56477;52.742;15.242;2023-12-28T06:54:40;5.10;;;2.20;;
69334;SDS011;56477;52.742;15.242;2023-12-28T06:57:06;6.07;;;1.73;;
69334;SDS011;56477;52.742;15.242;2023-12-28T06:59:32;3.13;;;1.13;;
69334;SDS011;56477;52.742;15.242;2023-12-28T07:01:58;7.90;;;1.73;;
69334;SDS011;56477;52.742;15.242;2023-12-28T07:04:24;4.73;;;1.53;;
69334;SDS011;56477;52.742;15.242;2023-12-28T07:06:52;4.05;;;1.60;;
69334;SDS011;56477;52.742;15.242;2023-12-28T07:09:18;2.90;;;0.82;;
69334;SDS011;56477;52.742;15.242;2023-12-28T07:11:44;5.03;;;1.10;;
69334;SDS011;56477;52.742;15.242;2023-12-28T07:14:10;7.25;;;1.80;;
69334;SDS011;56477;52.742;15.242;2023-12-28T07:16:36;4.25;;;1.40;;
69334;SDS011;56477;52.742;15.242;2023-12-28T07:19:01;5.43;;;2.77;;
69334;SDS011;56477;52.742;15.242;2023-12-28T07:21:29;4.90;;;1.30;;
69334;SDS011;56477;52.742;15.242;2023-12-28T07:23:55;4.15;;;1.58;;
69334;SDS011;56477;52.742;15.242;2023-12-28T07:26:21;6.45;;;1.50;;
69334;SDS011;56477;52.742;15.242;2023-12-28T07:28:46;4.50;;;1.27;;
69334;SDS011;56477;52.742;15.242;2023-12-28T07:31:26;4.20;;;1.40;;
69334;SDS011;56477;52.742;15.242;2023-12-28T07:33:52;5.22;;;1.45;;
69334;SDS011;56477;52.742;15.242;2023-12-28T07:36:20;5.22;;;2.13;;
69334;SDS011;56477;52.742;15.242;2023-12-28T07:38:46;3.57;;;1.23;;
69334;SDS011;56477;52.742;15.242;2023-12-28T07:41:12;3.92;;;1.63;;
69334;SDS011;56477;52.742;15.242;2023-12-28T07:43:38;3.25;;;1.55;;
69334;SDS011;56477;52.742;15.242;2023-12-28T07:46:04;5.53;;;1.73;;
69334;SDS011;56477;52.742;15.242;2023-12-28T07:48:30;3.13;;;1.10;;
69334;SDS011;56477;52.742;15.242;2023-12-28T07:50:57;3.78;;;1.45;;
69334;SDS011;56477;52.742;15.242;2023-12-28T07:53:23;7.80;;;1.92;;
69334;SDS011;56477;52.742;15.242;2023-12-28T07:55:49;3.50;;;1.70;;
69334;SDS011;56477;52.742;15.242;2023-12-28T07:58:15;3.90;;;1.10;;
69334;SDS011;56477;52.742;15.242;2023-12-28T08:00:41;5.10;;;1.25;;
69334;SDS011;56477;52.742;15.242;2023-12-28T08:03:07;2.70;;;1.08;;
69334;SDS011;56477;52.742;15.242;2023-12-28T08:05:33;4.87;;;1.67;;
69334;SDS011;56477;52.742;15.242;2023-12-28T08:07:59;5.07;;;1.27;;
69334;SDS011;56477;52.742;15.242;2023-12-28T08:10:25;3.90;;;1.50;;
69334;SDS011;56477;52.742;15.242;2023-12-28T08:12:50;6.50;;;2.10;;
69334;SDS011;56477;52.742;15.242;2023-12-28T08:15:17;4.38;;;2.00;;
69334;SDS011;56477;52.742;15.242;2023-12-28T08:17:42;4.47;;;1.88;;
69334;SDS011;56477;52.742;15.242;2023-12-28T08:20:09;6.13;;;2.17;;
69334;SDS011;56477;52.742;15.242;2023-12-28T08:22:34;3.30;;;1.17;;
69334;SDS011;56477;52.742;15.242;2023-12-28T08:25:00;5.70;;;2.38;;
69334;SDS011;56477;52.742;15.242;2023-12-28T08:27:26;7.10;;;2.60;;
69334;SDS011;56477;52.742;15.242;2023-12-28T08:29:52;5.97;;;2.20;;
69334;SDS011;56477;52.742;15.242;2023-12-28T08:32:18;8.87;;;3.00;;
69334;SDS011;56477;52.742;15.242;2023-12-28T08:34:44;5.80;;;1.90;;
69334;SDS011;56477;52.742;15.242;2023-12-28T08:37:11;8.10;;;1.92;;
69334;SDS011;56477;52.742;15.242;2023-12-28T08:39:39;5.85;;;2.42;;
69334;SDS011;56477;52.742;15.242;2023-12-28T08:42:05;4.80;;;1.80;;
69334;SDS011;56477;52.742;15.242;2023-12-28T08:44:31;8.45;;;1.50;;
69334;SDS011;56477;52.742;15.242;2023-12-28T08:46:58;4.13;;;1.50;;
69334;SDS011;56477;52.742;15.242;2023-12-28T08:49:24;3.78;;;1.63;;
69334;SDS011;56477;52.742;15.242;2023-12-28T08:51:50;3.95;;;1.70;;
69334;SDS011;56477;52.742;15.242;2023-12-28T08:54:17;4.00;;;1.50;;
69334;SDS011;56477;52.742;15.242;2023-12-28T08:56:42;5.07;;;1.55;;
69334;SDS011;56477;52.742;15.242;2023-12-28T08:59:09;4.60;;;1.58;;
69334;SDS011;56477;52.742;15.242;2023-12-28T09:01:35;3.87;;;1.37;;
69334;SDS011;56477;52.742;15.242;2023-12-28T09:04:01;8.88;;;2.22;;
69334;SDS011;56477;52.742;15.242;2023-12-28T09:06:27;6.70;;;2.30;;
69334;SDS011;56477;52.742;15.242;2023-12-28T09:08:53;5.57;;;2.05;;
69334;SDS011;56477;52.742;15.242;2023-12-28T09:11:19;4.43;;;1.88;;
69334;SDS011;56477;52.742;15.242;2023-12-28T09:13:45;8.03;;;3.40;;
69334;SDS011;56477;52.742;15.242;2023-12-28T09:16:12;8.18;;;3.13;;
69334;SDS011;56477;52.742;15.242;2023-12-28T09:18:39;4.32;;;1.85;;
69334;SDS011;56477;52.742;15.242;2023-12-28T09:21:05;4.32;;;1.98;;
69334;SDS011;56477;52.742;15.242;2023-12-28T09:23:33;7.43;;;3.10;;
69334;SDS011;56477;52.742;15.242;2023-12-28T09:26:00;8.23;;;3.50;;
69334;SDS011;56477;52.742;15.242;2023-12-28T09:28:27;7.80;;;2.58;;
69334;SDS011;56477;52.742;15.242;2023-12-28T09:30:52;8.23;;;3.17;;
69334;SDS011;56477;52.742;15.242;2023-12-28T09:33:18;6.80;;;2.42;;
69334;SDS011;56477;52.742;15.242;2023-12-28T09:35:44;8.55;;;1.83;;
69334;SDS011;56477;52.742;15.242;2023-12-28T09:38:10;7.40;;;2.85;;
69334;SDS011;56477;52.742;15.242;2023-12-28T09:40:36;5.40;;;2.37;;
69334;SDS011;56477;52.742;15.242;2023-12-28T09:45:51;8.57;;;3.03;;
69334;SDS011;56477;52.742;15.242;2023-12-28T09:48:18;3.80;;;1.67;;
69334;SDS011;56477;52.742;15.242;2023-12-28T09:50:45;7.82;;;3.03;;
69334;SDS011;56477;52.742;15.242;2023-12-28T09:53:14;8.80;;;3.63;;
69334;SDS011;56477;52.742;15.242;2023-12-28T09:55:40;7.10;;;2.50;;
69334;SDS011;56477;52.742;15.242;2023-12-28T09:58:06;8.48;;;2.50;;
69334;SDS011;56477;52.742;15.242;2023-12-28T10:00:32;10.10;;;2.47;;
69334;SDS011;56477;52.742;15.242;2023-12-28T10:03:05;5.37;;;2.70;;
69334;SDS011;56477;52.742;15.242;2023-12-28T10:05:31;6.15;;;2.95;;
69334;SDS011;56477;52.742;15.242;2023-12-28T10:07:57;7.00;;;2.30;;
69334;SDS011;56477;52.742;15.242;2023-12-28T10:10:23;8.80;;;3.00;;
69334;SDS011;56477;52.742;15.242;2023-12-28T10:12:49;5.63;;;2.20;;
69334;SDS011;56477;52.742;15.242;2023-12-28T10:15:16;5.22;;;2.38;;
69334;SDS011;56477;52.742;15.242;2023-12-28T10:17:43;7.43;;;2.45;;
69334;SDS011;56477;52.742;15.242;2023-12-28T10:20:09;6.13;;;2.45;;
69334;SDS011;56477;52.742;15.242;2023-12-28T10:22:38;6.00;;;2.27;;
69334;SDS011;56477;52.742;15.242;2023-12-28T10:25:04;5.68;;;2.50;;
69334;SDS011;56477;52.742;15.242;2023-12-28T10:27:30;7.50;;;2.38;;
69334;SDS011;56477;52.742;15.242;2023-12-28T10:29:56;6.88;;;2.33;;
69334;SDS011;56477;52.742;15.242;2023-12-28T10:32:23;7.43;;;2.85;;
69334;SDS011;56477;52.742;15.242;2023-12-28T10:34:53;3.43;;;1.50;;
69334;SDS011;56477;52.742;15.242;2023-12-28T10:37:21;5.40;;;1.90;;
69334;SDS011;56477;52.742;15.242;2023-12-28T10:39:48;4.93;;;2.00;;
69334;SDS011;56477;52.742;15.242;2023-12-28T10:42:28;6.13;;;2.50;;
69334;SDS011;56477;52.742;15.242;2023-12-28T10:45:00;6.75;;;3.35;;
69334;SDS011;56477;52.742;15.242;2023-12-28T10:47:31;7.67;;;2.67;;
69334;SDS011;56477;52.742;15.242;2023-12-28T10:50:03;4.75;;;2.10;;
69334;SDS011;56477;52.742;15.242;2023-12-28T10:52:32;7.72;;;2.58;;
69334;SDS011;56477;52.742;15.242;2023-12-28T10:57:48;7.13;;;2.38;;
69334;SDS011;56477;52.742;15.242;2023-12-28T11:00:30;5.67;;;2.33;;
69334;SDS011;56477;52.742;15.242;2023-12-28T11:03:02;4.68;;;1.90;;
69334;SDS011;56477;52.742;15.242;2023-12-28T11:05:28;3.10;;;1.58;;
69334;SDS011;56477;52.742;15.242;2023-12-28T11:07:55;7.15;;;2.30;;
69334;SDS011;56477;52.742;15.242;2023-12-28T11:10:24;3.35;;;1.48;;
69334;SDS011;56477;52.742;15.242;2023-12-28T11:12:53;5.37;;;1.43;;
69334;SDS011;56477;52.742;15.242;2023-12-28T11:15:19;6.22;;;1.90;;
69334;SDS011;56477;52.742;15.242;2023-12-28T11:17:46;3.78;;;1.55;;
69334;SDS011;56477;52.742;15.242;2023-12-28T11:20:13;6.75;;;2.10;;
69334;SDS011;56477;52.742;15.242;2023-12-28T11:22:39;4.47;;;1.73;;
69334;SDS011;56477;52.742;15.242;2023-12-28T11:25:06;4.53;;;1.53;;
69334;SDS011;56477;52.742;15.242;2023-12-28T11:27:40;7.68;;;2.60;;
69334;SDS011;56477;52.742;15.242;2023-12-28T11:30:07;5.00;;;2.30;;
69334;SDS011;56477;52.742;15.242;2023-12-28T11:32:36;5.68;;;2.00;;
69334;SDS011;56477;52.742;15.242;2023-12-28T11:35:02;6.32;;;1.95;;
69334;SDS011;56477;52.742;15.242;2023-12-28T11:37:35;4.77;;;2.23;;
69334;SDS011;56477;52.742;15.242;2023-12-28T11:40:13;2.45;;;1.17;;
69334;SDS011;56477;52.742;15.242;2023-12-28T11:42:52;5.88;;;2.55;;
69334;SDS011;56477;52.742;15.242;2023-12-28T11:45:19;6.30;;;1.95;;
69334;SDS011;56477;52.742;15.242;2023-12-28T11:47:47;6.65;;;2.45;;
69334;SDS011;56477;52.742;15.242;2023-12-28T11:50:23;2.67;;;0.97;;
69334;SDS011;56477;52.742;15.242;2023-12-28T11:52:49;5.40;;;1.60;;
69334;SDS011;56477;52.742;15.242;2023-12-28T11:55:21;5.90;;;2.10;;
69334;SDS011;56477;52.742;15.242;2023-12-28T11:57:49;5.55;;;1.88;;
69334;SDS011;56477;52.742;15.242;2023-12-28T12:00:15;5.03;;;1.80;;
69334;SDS011;56477;52.742;15.242;2023-12-28T12:02:44;4.28;;;1.77;;
69334;SDS011;56477;52.742;15.242;2023-12-28T12:05:10;3.70;;;1.60;;
69334;SDS011;56477;52.742;15.242;2023-12-28T12:07:37;6.78;;;1.75;;
69334;SDS011;56477;52.742;15.242;2023-12-28T12:10:03;4.00;;;1.60;;
69334;SDS011;56477;52.742;15.242;2023-12-28T12:12:30;3.08;;;1.08;;
69334;SDS011;56477;52.742;15.242;2023-12-28T12:14:56;5.97;;;1.77;;
69334;SDS011;56477;52.742;15.242;2023-12-28T12:17:22;4.65;;;1.92;;
69334;SDS011;56477;52.742;15.242;2023-12-28T12:19:48;4.32;;;1.38;;
69334;SDS011;56477;52.742;15.242;2023-12-28T12:22:16;4.77;;;2.00;;
69334;SDS011;56477;52.742;15.242;2023-12-28T12:24:44;4.95;;;1.90;;
69334;SDS011;56477;52.742;15.242;2023-12-28T12:27:14;5.45;;;2.25;;
69334;SDS011;56477;52.742;15.242;2023-12-28T12:29:39;5.28;;;2.08;;
69334;SDS011;56477;52.742;15.242;2023-12-28T12:32:06;4.33;;;1.50;;
69334;SDS011;56477;52.742;15.242;2023-12-28T12:34:32;3.22;;;1.33;;
69334;SDS011;56477;52.742;15.242;2023-12-28T12:36:59;4.00;;;1.65;;
69334;SDS011;56477;52.742;15.242;2023-12-28T12:39:25;4.60;;;1.40;;
69334;SDS011;56477;52.742;15.242;2023-12-28T12:41:52;4.30;;;1.80;;
69334;SDS011;56477;52.742;15.242;2023-12-28T12:44:21;4.73;;;2.23;;
69334;SDS011;56477;52.742;15.242;2023-12-28T12:46:48;3.92;;;1.48;;
69334;SDS011;56477;52.742;15.242;2023-12-28T12:49:14;3.67;;;1.58;;
69334;SDS011;56477;52.742;15.242;2023-12-28T12:51:41;4.10;;;1.23;;
69334;SDS011;56477;52.742;15.242;2023-12-28T12:54:07;4.73;;;2.00;;
69334;SDS011;56477;52.742;15.242;2023-12-28T12:56:34;5.30;;;2.30;;
69334;SDS011;56477;52.742;15.242;2023-12-28T12:59:00;5.25;;;2.08;;
69334;SDS011;56477;52.742;15.242;2023-12-28T13:01:26;4.00;;;1.25;;
69334;SDS011;56477;52.742;15.242;2023-12-28T13:03:53;4.38;;;2.00;;
69334;SDS011;56477;52.742;15.242;2023-12-28T13:06:19;3.43;;;1.37;;
69334;SDS011;56477;52.742;15.242;2023-12-28T13:08:54;6.68;;;1.80;;
69334;SDS011;56477;52.742;15.242;2023-12-28T13:11:20;2.83;;;1.10;;
69334;SDS011;56477;52.742;15.242;2023-12-28T13:13:52;4.68;;;1.30;;
69334;SDS011;56477;52.742;15.242;2023-12-28T13:16:18;2.88;;;1.42;;
69334;SDS011;56477;52.742;15.242;2023-12-28T13:18:44;3.97;;;1.73;;
69334;SDS011;56477;52.742;15.242;2023-12-28T13:21:10;3.95;;;1.70;;
69334;SDS011;56477;52.742;15.242;2023-12-28T13:23:36;3.93;;;1.40;;
69334;SDS011;56477;52.742;15.242;2023-12-28T13:26:02;3.03;;;1.50;;
69334;SDS011;56477;52.742;15.242;2023-12-28T13:28:28;6.18;;;1.40;;
69334;SDS011;56477;52.742;15.242;2023-12-28T13:30:54;4.45;;;2.08;;
69334;SDS011;56477;52.742;15.242;2023-12-28T13:33:21;2.78;;;1.00;;
69334;SDS011;56477;52.742;15.242;2023-12-28T13:35:47;3.00;;;1.17;;
69334;SDS011;56477;52.742;15.242;2023-12-28T13:38:13;5.05;;;1.50;;
69334;SDS011;56477;52.742;15.242;2023-12-28T13:40:39;2.90;;;1.20;;
69334;SDS011;56477;52.742;15.242;2023-12-28T13:43:05;4.80;;;1.33;;
69334;SDS011;56477;52.742;15.242;2023-12-28T13:45:32;3.22;;;1.00;;
69334;SDS011;56477;52.742;15.242;2023-12-28T13:47:57;2.95;;;1.10;;
69334;SDS011;56477;52.742;15.242;2023-12-28T13:50:23;4.15;;;1.40;;
69334;SDS011;56477;52.742;15.242;2023-12-28T13:52:49;4.10;;;1.50;;
69334;SDS011;56477;52.742;15.242;2023-12-28T13:55:15;2.75;;;1.30;;
69334;SDS011;56477;52.742;15.242;2023-12-28T13:57:41;3.85;;;1.13;;
69334;SDS011;56477;52.742;15.242;2023-12-28T14:00:08;4.73;;;1.50;;
69334;SDS011;56477;52.742;15.242;2023-12-28T14:02:34;4.22;;;1.08;;
69334;SDS011;56477;52.742;15.242;2023-12-28T14:05:00;3.55;;;1.05;;
69334;SDS011;56477;52.742;15.242;2023-12-28T14:07:26;6.55;;;0.77;;
69334;SDS011;56477;52.742;15.242;2023-12-28T14:09:52;2.20;;;0.70;;
69334;SDS011;56477;52.742;15.242;2023-12-28T14:12:18;3.13;;;1.70;;
69334;SDS011;56477;52.742;15.242;2023-12-28T14:14:44;4.43;;;0.88;;
69334;SDS011;56477;52.742;15.242;2023-12-28T14:17:10;3.17;;;0.57;;
69334;SDS011;56477;52.742;15.242;2023-12-28T14:19:36;4.80;;;2.03;;
69334;SDS011;56477;52.742;15.242;2023-12-28T14:22:02;5.15;;;1.38;;
69334;SDS011;56477;52.742;15.242;2023-12-28T14:24:28;3.85;;;1.63;;
69334;SDS011;56477;52.742;15.242;2023-12-28T14:26:54;4.53;;;1.47;;
69334;SDS011;56477;52.742;15.242;2023-12-28T14:29:22;4.00;;;1.60;;
69334;SDS011;56477;52.742;15.242;2023-12-28T14:31:48;4.10;;;1.45;;
69334;SDS011;56477;52.742;15.242;2023-12-28T14:34:15;3.55;;;1.20;;
69334;SDS011;56477;52.742;15.242;2023-12-28T14:36:41;4.82;;;1.27;;